createdAt,value
2024-03-25T00:00:50.630Z,69.12
2024-03-25T00:01:50.649Z,70.33
2024-03-25T00:02:50.670Z,69.79
2024-03-25T00:03:50.688Z,72.53
2024-03-25T00:04:50.730Z,70.47
2024-03-25T00:05:50.739Z,67.85
2024-03-25T00:06:50.799Z,70.20
2024-03-25T00:07:50.795Z,67.91
2024-03-25T00:08:50.808Z,67.86
2024-03-25T00:09:50.824Z,66.04
2024-03-25T00:10:50.888Z,66.12
2024-03-25T00:11:50.859Z,65.84
2024-03-25T00:12:50.892Z,67.40
2024-03-25T00:13:50.936Z,64.08
2024-03-25T00:14:50.948Z,65.69
2024-03-25T00:15:50.959Z,66.13
2024-03-25T00:16:50.997Z,67.93
2024-03-25T00:17:51.008Z,66.00
2024-03-25T00:18:51.040Z,66.11
2024-03-25T00:19:51.190Z,63.60
2024-03-25T00:20:51.094Z,65.48
2024-03-25T00:21:51.128Z,67.75
2024-03-25T00:22:51.151Z,65.42
2024-03-25T00:23:51.169Z,66.68
2024-03-25T00:24:51.204Z,67.73
2024-03-25T00:25:51.248Z,67.16
2024-03-25T00:26:51.263Z,67.28
2024-03-25T00:27:51.289Z,66.36
2024-03-25T00:28:51.317Z,68.43
2024-03-25T00:29:51.323Z,67.88
2024-03-25T00:30:51.355Z,68.65
2024-03-25T00:31:51.399Z,66.58
2024-03-25T00:32:51.411Z,67.03
2024-03-25T00:33:51.441Z,68.22
2024-03-25T00:34:51.495Z,67.27
2024-03-25T00:35:51.501Z,66.63
2024-03-25T00:36:51.511Z,67.17
2024-03-25T00:37:51.546Z,66.60
2024-03-25T00:38:51.584Z,68.23
2024-03-25T00:39:51.602Z,67.71
2024-03-25T00:40:51.656Z,67.41
2024-03-25T00:41:51.652Z,65.73
2024-03-25T00:42:51.678Z,65.91
2024-03-25T00:43:51.765Z,65.71
2024-03-25T00:44:51.759Z,67.03
2024-03-25T00:45:51.759Z,65.94
2024-03-25T00:46:51.814Z,66.78
2024-03-25T00:47:51.825Z,66.08
2024-03-25T00:48:51.837Z,66.70
2024-03-25T00:49:51.883Z,65.48
2024-03-25T00:50:51.913Z,65.51
2024-03-25T00:51:51.913Z,63.71
2024-03-25T00:52:51.953Z,67.90
2024-03-25T00:53:51.964Z,65.08
2024-03-25T00:54:52.011Z,68.00
2024-03-25T00:55:52.026Z,65.70
2024-03-25T00:56:52.037Z,67.56
2024-03-25T00:57:52.078Z,65.46
2024-03-25T00:58:52.132Z,65.29
2024-03-25T00:59:52.115Z,67.07
2024-03-25T01:00:52.148Z,67.09
2024-03-25T01:01:52.186Z,66.21
2024-03-25T01:02:52.195Z,65.05
2024-03-25T01:03:52.251Z,65.48
2024-03-25T01:04:52.302Z,65.49
2024-03-25T01:05:52.303Z,65.24
2024-03-25T01:06:52.328Z,63.05
2024-03-25T01:07:52.403Z,62.12
2024-03-25T01:08:52.380Z,62.88
2024-03-25T01:09:52.501Z,63.65
2024-03-25T01:10:52.449Z,64.29
2024-03-25T01:11:52.470Z,64.34
2024-03-25T01:12:52.505Z,62.60
2024-03-25T01:13:52.567Z,64.60
2024-03-25T01:14:52.586Z,62.82
2024-03-25T01:15:52.581Z,62.69
2024-03-25T01:16:52.644Z,60.96
2024-03-25T01:17:52.663Z,56.55
2024-03-25T01:18:52.732Z,56.98
2024-03-25T01:19:52.707Z,55.43
2024-03-25T01:20:52.731Z,56.61
2024-03-25T01:21:52.766Z,54.90
2024-03-25T01:22:52.798Z,55.88
2024-03-25T01:23:52.836Z,55.23
2024-03-25T01:24:52.851Z,54.54
2024-03-25T01:25:52.888Z,54.81
2024-03-25T01:26:52.940Z,54.24
2024-03-25T01:27:52.933Z,52.72
2024-03-25T01:28:52.974Z,53.00
2024-03-25T01:29:53.013Z,53.21
2024-03-25T01:30:53.056Z,54.10
2024-03-25T01:31:53.064Z,51.63
2024-03-25T01:32:53.090Z,50.87
2024-03-25T01:33:53.124Z,50.66
2024-03-25T01:34:53.174Z,50.68
2024-03-25T01:35:53.202Z,51.76
2024-03-25T01:36:53.236Z,50.95
2024-03-25T01:37:53.267Z,50.48
2024-03-25T01:38:53.304Z,50.60
2024-03-25T01:39:53.339Z,51.38
2024-03-25T01:40:53.373Z,50.44
2024-03-25T01:41:53.398Z,50.49
2024-03-25T01:42:53.424Z,51.89
2024-03-25T01:43:53.507Z,51.81
2024-03-25T01:44:53.533Z,53.79
2024-03-25T01:45:53.556Z,53.36
2024-03-25T01:46:53.596Z,55.11
2024-03-25T01:47:53.629Z,53.81
2024-03-25T01:48:53.666Z,54.93
2024-03-25T01:49:53.723Z,55.38
2024-03-25T01:50:53.760Z,54.62
2024-03-25T01:51:53.778Z,56.43
2024-03-25T01:52:53.851Z,54.94
2024-03-25T01:53:53.874Z,55.71
2024-03-25T01:54:53.912Z,58.42
2024-03-25T01:55:53.960Z,58.30
2024-03-25T01:56:54.002Z,57.53
2024-03-25T01:57:54.048Z,59.93
2024-03-25T01:58:54.091Z,61.51
2024-03-25T01:59:54.123Z,58.84
2024-03-25T02:00:54.176Z,58.98
2024-03-25T02:01:54.234Z,59.34
2024-03-25T02:02:54.266Z,60.79
2024-03-25T02:03:54.313Z,63.03
2024-03-25T02:04:54.373Z,60.65
2024-03-25T02:05:54.401Z,61.46
2024-03-25T02:06:54.434Z,63.57
2024-03-25T02:07:54.481Z,62.21
2024-03-25T02:08:54.511Z,63.02
2024-03-25T02:09:54.553Z,63.29
2024-03-25T02:10:54.612Z,62.63
2024-03-25T02:11:54.666Z,64.87
2024-03-25T02:12:54.683Z,64.72
2024-03-25T02:13:54.737Z,65.35
2024-03-25T02:14:54.771Z,65.11
2024-03-25T02:15:54.826Z,65.43
2024-03-25T02:16:54.839Z,66.21
2024-03-25T02:17:54.873Z,66.30
2024-03-25T02:18:54.910Z,66.42
2024-03-25T02:19:54.961Z,67.85
2024-03-25T02:20:54.991Z,65.60
2024-03-25T02:21:55.035Z,67.17
2024-03-25T02:22:55.111Z,66.64
2024-03-25T02:23:55.110Z,67.02
2024-03-25T02:24:55.161Z,67.81
2024-03-25T02:25:55.187Z,68.79
2024-03-25T02:26:55.215Z,67.98
2024-03-25T02:27:55.272Z,66.57
2024-03-25T02:28:55.380Z,67.69
2024-03-25T02:29:55.356Z,67.98
2024-03-25T02:30:55.402Z,67.96
2024-03-25T02:31:55.466Z,68.18
2024-03-25T02:32:55.477Z,69.04
2024-03-25T02:33:55.525Z,68.64
2024-03-25T02:34:55.633Z,70.62
2024-03-25T02:35:55.624Z,68.69
2024-03-25T02:36:55.647Z,70.43
2024-03-25T02:37:55.698Z,70.76
2024-03-25T02:38:55.750Z,70.43
2024-03-25T02:39:55.788Z,68.62
2024-03-25T02:40:55.832Z,71.29
2024-03-25T02:41:55.858Z,69.31
2024-03-25T02:43:47.540Z,50.00
2024-03-25T02:44:47.551Z,50.00
2024-03-25T02:45:47.591Z,50.00
2024-03-25T02:46:47.544Z,50.00
2024-03-25T02:47:47.556Z,50.00
2024-03-25T02:48:47.551Z,51.09
2024-03-25T02:49:47.561Z,50.31
2024-03-25T02:50:47.569Z,52.46
2024-03-25T02:51:47.548Z,50.73
2024-03-25T02:52:47.577Z,51.83
2024-03-25T02:53:47.550Z,50.71
2024-03-25T02:54:47.566Z,52.42
2024-03-25T02:55:47.549Z,50.99
2024-03-25T02:56:47.548Z,50.42
2024-03-25T02:57:47.551Z,51.69
2024-03-25T02:58:47.540Z,52.12
2024-03-25T02:59:47.570Z,51.02
2024-03-25T03:00:47.550Z,52.01
2024-03-25T03:01:47.565Z,52.17
2024-03-25T03:02:47.540Z,50.27
2024-03-25T03:03:47.556Z,51.00
2024-03-25T03:04:47.591Z,51.01
2024-03-25T03:05:47.547Z,52.17
2024-03-25T03:06:47.553Z,51.58
2024-03-25T03:07:47.555Z,52.79
2024-03-25T03:08:47.559Z,53.50
2024-03-25T03:09:47.555Z,54.04
2024-03-25T03:10:47.553Z,53.57
2024-03-25T03:11:47.554Z,52.67
2024-03-25T03:12:47.555Z,52.31
2024-03-25T03:13:47.552Z,53.26
2024-03-25T03:14:47.559Z,52.70
2024-03-25T03:15:47.551Z,53.04
2024-03-25T03:16:47.554Z,52.85
2024-03-25T03:17:47.557Z,52.85
2024-03-25T03:18:47.566Z,52.82
2024-03-25T03:19:47.565Z,52.01
2024-03-25T03:20:47.556Z,52.78
2024-03-25T03:21:47.556Z,52.40
2024-03-25T03:22:47.553Z,50.72
2024-03-25T03:23:47.569Z,51.52
2024-03-25T03:24:47.644Z,50.77
2024-03-25T03:25:47.641Z,51.86
2024-03-25T03:26:47.691Z,52.84
2024-03-25T03:27:47.726Z,54.49
2024-03-25T03:28:47.768Z,53.30
2024-03-25T03:29:47.823Z,53.72
2024-03-25T03:30:47.853Z,52.20
2024-03-25T03:31:47.890Z,52.38
2024-03-25T03:32:47.948Z,53.13
2024-03-25T03:33:47.974Z,54.39
2024-03-25T03:34:48.025Z,52.54
2024-03-25T03:35:48.061Z,52.24
2024-03-25T03:36:48.109Z,53.16
2024-03-25T03:37:48.152Z,53.85
2024-03-25T03:38:48.209Z,51.79
2024-03-25T03:39:48.242Z,53.43
2024-03-25T03:40:48.279Z,53.98
2024-03-25T03:41:48.319Z,53.07
2024-03-25T03:42:48.368Z,53.76
2024-03-25T03:43:48.424Z,52.51
2024-03-25T03:44:48.466Z,53.72
2024-03-25T03:45:48.512Z,51.82
2024-03-25T03:46:48.580Z,53.33
2024-03-25T03:47:48.637Z,54.09
2024-03-25T03:48:48.701Z,52.67
2024-03-25T03:49:48.733Z,53.75
2024-03-25T03:50:48.764Z,52.39
2024-03-25T03:51:48.820Z,51.42
2024-03-25T03:52:48.881Z,52.07
2024-03-25T03:53:48.919Z,51.55
2024-03-25T03:54:48.962Z,53.24
2024-03-25T03:55:48.990Z,54.15
2024-03-25T03:56:49.035Z,51.06
2024-03-25T03:57:49.082Z,53.55
2024-03-25T03:58:49.134Z,50.19
2024-03-25T03:59:49.185Z,54.26
2024-03-25T04:00:49.240Z,52.26
2024-03-25T04:01:49.264Z,54.63
2024-03-25T04:02:49.319Z,53.85
2024-03-25T04:03:49.362Z,52.06
2024-03-25T04:04:49.459Z,52.80
2024-03-25T04:05:49.462Z,54.33
2024-03-25T04:06:49.511Z,52.43
2024-03-25T04:07:49.568Z,54.35
2024-03-25T04:08:49.603Z,53.16
2024-03-25T04:09:49.656Z,54.21
2024-03-25T04:10:49.689Z,53.69
2024-03-25T04:11:49.761Z,51.36
2024-03-25T04:12:49.794Z,50.67
2024-03-25T04:13:49.820Z,53.42
2024-03-25T04:14:49.885Z,51.05
2024-03-25T04:15:49.931Z,51.54
2024-03-25T04:16:49.964Z,53.48
2024-03-25T04:17:50.042Z,50.16
2024-03-25T04:18:50.056Z,54.04
2024-03-25T04:19:50.113Z,52.02
2024-03-25T04:20:50.160Z,52.79
2024-03-25T04:21:50.204Z,51.82
2024-03-25T04:22:50.252Z,54.12
2024-03-25T04:23:50.306Z,52.47
2024-03-25T04:24:50.323Z,50.89
2024-03-25T04:25:50.361Z,51.81
2024-03-25T04:26:50.429Z,52.65
2024-03-25T04:27:50.458Z,51.57
2024-03-25T04:28:50.486Z,51.13
2024-03-25T04:29:50.534Z,50.21
2024-03-25T04:30:57.768Z,50.00
2024-03-25T04:32:05.020Z,50.00
2024-03-25T04:33:04.977Z,50.00
2024-03-25T04:34:04.970Z,50.00
2024-03-25T04:35:05.003Z,50.00
2024-03-25T04:36:04.980Z,50.00
2024-03-25T04:37:04.986Z,51.33
2024-03-25T04:38:05.028Z,51.28
2024-03-25T04:39:04.970Z,51.83
2024-03-25T04:40:04.998Z,52.79
2024-03-25T04:41:04.983Z,51.86
2024-03-25T04:42:04.974Z,52.95
2024-03-25T04:43:04.983Z,50.58
2024-03-25T04:44:05.022Z,50.52
2024-03-25T04:45:04.977Z,51.60
2024-03-25T04:46:04.978Z,51.92
2024-03-25T04:47:05.044Z,52.84
2024-03-25T04:48:05.018Z,51.46
2024-03-25T04:49:04.978Z,52.02
2024-03-25T04:50:05.017Z,53.80
2024-03-25T04:51:04.981Z,52.84
2024-03-25T04:52:05.000Z,53.04
2024-03-25T04:53:04.993Z,50.24
2024-03-25T04:54:04.996Z,52.38
2024-03-25T04:55:04.996Z,52.43
2024-03-25T04:56:05.010Z,53.50
2024-03-25T04:57:05.029Z,54.62
2024-03-25T04:58:04.995Z,53.06
2024-03-25T04:59:05.045Z,52.29
2024-03-25T05:00:05.008Z,53.51
2024-03-25T05:01:04.999Z,52.04
2024-03-25T05:02:05.029Z,54.03
2024-03-25T05:03:05.019Z,52.45
2024-03-25T05:04:05.003Z,54.31
2024-03-25T05:05:05.040Z,52.45
2024-03-25T05:06:05.002Z,53.34
2024-03-25T05:07:05.024Z,54.50
2024-03-25T05:08:05.033Z,53.74
2024-03-25T05:09:05.005Z,54.35
2024-03-25T05:10:05.839Z,55.63
2024-03-25T05:11:05.056Z,54.65
2024-03-25T05:12:05.009Z,53.70
2024-03-25T05:13:05.039Z,55.87
2024-03-25T05:14:05.130Z,57.16
2024-03-25T05:15:05.133Z,53.89
2024-03-25T05:16:05.199Z,56.25
2024-03-25T05:17:05.276Z,54.08
2024-03-25T05:18:05.261Z,54.54
2024-03-25T05:19:05.297Z,57.23
2024-03-25T05:20:05.369Z,55.14
2024-03-25T05:21:05.411Z,53.78
2024-03-25T05:22:05.420Z,54.47
2024-03-25T05:23:05.499Z,56.17
2024-03-25T05:24:05.533Z,53.93
2024-03-25T05:25:05.571Z,52.96
2024-03-25T05:26:05.616Z,55.52
2024-03-25T05:27:05.641Z,55.81
2024-03-25T05:28:05.681Z,56.06
2024-03-25T05:29:05.762Z,53.85
2024-03-25T05:30:07.612Z,54.29
2024-03-25T05:31:05.768Z,53.89
2024-03-25T05:32:05.789Z,55.57
2024-03-25T05:33:05.765Z,57.75
2024-03-25T05:34:05.768Z,57.52
2024-03-25T05:35:05.815Z,55.82
2024-03-25T05:36:05.757Z,54.81
2024-03-25T05:37:07.710Z,54.12
2024-03-25T05:38:05.787Z,54.19
2024-03-25T05:39:05.774Z,54.25
2024-03-25T05:40:05.764Z,54.80
2024-03-25T05:41:05.785Z,55.44
2024-03-25T05:42:05.767Z,57.72
2024-03-25T05:43:05.763Z,56.49
2024-03-25T05:44:05.789Z,57.80
2024-03-25T05:45:05.790Z,55.14
2024-03-25T05:46:05.769Z,58.25
2024-03-25T05:47:05.797Z,57.29
2024-03-25T05:48:06.264Z,57.58
2024-03-25T05:49:05.802Z,56.19
2024-03-25T05:50:05.821Z,56.92
2024-03-25T05:51:05.786Z,58.65
2024-03-25T05:52:05.775Z,56.86
2024-03-25T05:53:05.789Z,57.78
2024-03-25T05:54:05.791Z,57.09
2024-03-25T05:55:05.805Z,57.36
2024-03-25T05:56:05.787Z,55.96
2024-03-25T05:57:05.792Z,57.69
2024-03-25T05:58:05.773Z,57.10
2024-03-25T05:59:05.800Z,58.63
2024-03-25T06:00:05.804Z,57.26
2024-03-25T06:01:05.810Z,56.31
2024-03-25T06:02:05.793Z,57.04
2024-03-25T06:03:05.811Z,57.54
2024-03-25T06:04:05.827Z,57.39
2024-03-25T06:05:05.823Z,57.22
2024-03-25T06:06:05.803Z,57.22
2024-03-25T06:07:05.819Z,57.65
2024-03-25T06:08:05.800Z,58.60
2024-03-25T06:09:05.796Z,58.03
2024-03-25T06:10:05.820Z,57.63
2024-03-25T06:11:05.838Z,60.13
2024-03-25T06:12:05.806Z,57.00
2024-03-25T06:13:05.824Z,56.59
2024-03-25T06:14:05.848Z,55.97
2024-03-25T06:15:05.806Z,57.44
2024-03-25T06:16:05.813Z,57.93
2024-03-25T06:17:05.834Z,56.98
2024-03-25T06:18:05.817Z,58.52
2024-03-25T06:19:05.822Z,57.99
2024-03-25T06:20:05.874Z,54.54
2024-03-25T06:21:05.829Z,59.71
2024-03-25T06:22:05.824Z,59.51
2024-03-25T06:23:05.855Z,58.32
2024-03-25T06:24:05.833Z,58.88
2024-03-25T06:25:05.855Z,57.79
2024-03-25T06:26:05.843Z,59.97
2024-03-25T06:27:05.838Z,57.84
2024-03-25T06:28:05.836Z,58.04
2024-03-25T06:29:05.879Z,59.08
2024-03-25T06:30:05.846Z,56.87
2024-03-25T06:31:05.827Z,59.59
2024-03-25T06:32:05.862Z,55.71
2024-03-25T06:33:05.835Z,58.33
2024-03-25T06:34:05.874Z,61.31
2024-03-25T06:35:05.872Z,57.89
2024-03-25T06:36:05.831Z,58.33
2024-03-25T06:37:05.835Z,59.32
2024-03-25T06:38:05.858Z,58.41
2024-03-25T06:39:05.897Z,58.63
2024-03-25T06:40:05.925Z,60.44
2024-03-25T06:41:05.959Z,59.02
2024-03-25T06:42:05.982Z,58.84
2024-03-25T06:43:06.015Z,58.43
2024-03-25T06:44:06.081Z,57.77
2024-03-25T06:45:06.093Z,57.16
2024-03-25T06:46:06.156Z,55.90
2024-03-25T06:47:06.183Z,57.09
2024-03-25T06:48:06.213Z,56.57
2024-03-25T06:49:06.255Z,57.13
2024-03-25T06:50:06.284Z,57.04
2024-03-25T06:51:06.321Z,56.26
2024-03-25T06:52:06.351Z,54.74
2024-03-25T06:53:06.402Z,54.54
2024-03-25T06:54:06.488Z,54.76
2024-03-25T06:55:06.460Z,52.02
2024-03-25T06:56:06.529Z,54.81
2024-03-25T06:57:06.552Z,54.28
2024-03-25T06:58:06.587Z,53.10
2024-03-25T06:59:06.623Z,51.90
2024-03-25T07:00:06.655Z,53.60
2024-03-25T07:01:06.682Z,53.91
2024-03-25T07:02:06.725Z,53.01
2024-03-25T07:03:06.765Z,52.96
2024-03-25T07:04:06.821Z,53.39
2024-03-25T07:05:06.862Z,55.97
2024-03-25T07:06:06.875Z,51.77
2024-03-25T07:07:06.928Z,50.00
2024-03-25T07:08:06.974Z,55.55
2024-03-25T07:09:07.066Z,53.98
2024-03-25T07:10:07.033Z,55.19
2024-03-25T07:11:07.077Z,54.52
2024-03-25T07:12:07.112Z,54.65
2024-03-25T07:13:07.144Z,53.23
2024-03-25T07:14:07.188Z,55.20
2024-03-25T07:15:07.187Z,53.43
2024-03-25T07:16:07.220Z,52.74
2024-03-25T07:17:07.266Z,53.03
2024-03-25T07:18:07.317Z,53.94
2024-03-25T07:19:07.345Z,52.66
2024-03-25T07:20:07.370Z,53.26
2024-03-25T07:21:07.414Z,51.48
2024-03-25T07:22:07.430Z,52.55
2024-03-25T07:23:07.510Z,52.85
2024-03-25T07:24:07.504Z,52.66
2024-03-25T07:25:07.529Z,52.35
2024-03-25T07:26:07.564Z,54.43
2024-03-25T07:27:07.583Z,53.45
2024-03-25T07:28:07.607Z,51.34
2024-03-25T07:29:07.688Z,52.14
2024-03-25T07:30:07.694Z,51.78
2024-03-25T07:31:07.712Z,53.66
2024-03-25T07:32:07.772Z,52.60
2024-03-25T07:33:07.768Z,52.92
2024-03-25T07:34:07.794Z,52.96
2024-03-25T07:35:07.823Z,52.40
2024-03-25T07:36:07.848Z,52.18
2024-03-25T07:37:07.887Z,54.20
2024-03-25T07:38:07.947Z,51.27
2024-03-25T07:39:07.950Z,53.17
2024-03-25T07:40:07.967Z,52.33
2024-03-25T07:41:07.999Z,52.17
2024-03-25T07:42:08.019Z,55.17
2024-03-25T07:43:08.074Z,52.82
2024-03-25T07:44:08.115Z,53.02
2024-03-25T07:45:08.095Z,53.19
2024-03-25T07:46:08.136Z,53.64
2024-03-25T07:47:08.150Z,53.94
2024-03-25T07:48:08.214Z,53.16
2024-03-25T07:49:08.236Z,52.17
2024-03-25T07:50:08.337Z,52.88
2024-03-25T07:51:08.274Z,53.79
2024-03-25T07:52:08.350Z,54.16
2024-03-25T07:53:08.350Z,53.50
2024-03-25T07:54:08.349Z,54.48
2024-03-25T07:55:08.381Z,53.30
2024-03-25T07:56:08.513Z,54.93
2024-03-25T07:57:08.420Z,55.37
2024-03-25T07:58:08.454Z,55.72
2024-03-25T07:59:08.542Z,56.33
2024-03-25T08:00:08.492Z,53.79
2024-03-25T08:01:08.536Z,55.38
2024-03-25T08:02:08.605Z,53.87
2024-03-25T08:03:08.569Z,57.24
2024-03-25T08:04:08.637Z,57.25
2024-03-25T08:05:08.799Z,55.85
2024-03-25T08:06:08.761Z,55.53
2024-03-25T08:07:08.717Z,55.36
2024-03-25T08:08:08.710Z,55.40
2024-03-25T08:09:08.768Z,57.21
2024-03-25T08:10:08.802Z,55.19
2024-03-25T08:11:08.791Z,57.80
2024-03-25T08:12:08.821Z,57.10
2024-03-25T08:13:09.634Z,56.53
2024-03-25T08:14:08.874Z,55.27
2024-03-25T08:15:08.907Z,56.46
2024-03-25T08:16:08.941Z,55.62
2024-03-25T08:17:08.958Z,53.50
2024-03-25T08:18:08.955Z,57.38
2024-03-25T08:19:09.001Z,56.40
2024-03-25T08:20:09.033Z,56.15
2024-03-25T08:21:09.032Z,56.86
2024-03-25T08:22:09.046Z,55.08
2024-03-25T08:23:09.125Z,55.97
2024-03-25T08:24:09.102Z,56.43
2024-03-25T08:25:09.114Z,55.25
2024-03-25T08:26:09.214Z,58.51
2024-03-25T08:27:09.178Z,56.13
2024-03-25T08:28:09.220Z,58.82
2024-03-25T08:29:09.224Z,58.01
2024-03-25T08:30:09.211Z,57.76
2024-03-25T08:31:09.221Z,58.47
2024-03-25T08:32:09.320Z,58.82
2024-03-25T08:33:09.258Z,57.12
2024-03-25T08:34:09.283Z,56.47
2024-03-25T08:35:09.341Z,58.26
2024-03-25T08:36:09.305Z,59.02
2024-03-25T08:37:09.319Z,57.39
2024-03-25T08:38:09.334Z,58.00
2024-03-25T08:39:10.154Z,59.41
2024-03-25T08:40:09.339Z,55.41
2024-03-25T08:41:09.373Z,57.00
2024-03-25T08:42:09.407Z,58.14
2024-03-25T08:43:09.395Z,57.57
2024-03-25T08:44:09.408Z,56.95
2024-03-25T08:45:09.406Z,57.43
2024-03-25T08:46:09.385Z,57.40
2024-03-25T08:47:09.388Z,58.02
2024-03-25T08:48:09.407Z,57.79
2024-03-25T08:49:09.409Z,57.01
2024-03-25T08:50:09.423Z,58.71
2024-03-25T08:51:09.429Z,59.79
2024-03-25T08:52:09.438Z,56.71
2024-03-25T08:53:09.438Z,57.05
2024-03-25T08:54:09.446Z,58.56
2024-03-25T08:55:09.471Z,57.65
2024-03-25T08:56:09.551Z,57.34
2024-03-25T08:57:09.495Z,57.70
2024-03-25T08:58:09.517Z,57.67
2024-03-25T08:59:09.580Z,57.37
2024-03-25T09:00:09.593Z,58.52
2024-03-25T09:01:09.698Z,58.96
2024-03-25T09:02:10.244Z,60.27
2024-03-25T09:03:09.647Z,59.89
2024-03-25T09:04:13.716Z,60.18
2024-03-25T09:05:10.836Z,60.20
2024-03-25T09:06:09.704Z,60.18
2024-03-25T09:07:09.708Z,59.77
2024-03-25T09:08:09.716Z,60.81
2024-03-25T09:09:09.752Z,60.85
2024-03-25T09:10:09.715Z,62.01
2024-03-25T09:11:09.758Z,62.53
2024-03-25T09:12:09.708Z,60.46
2024-03-25T09:13:09.718Z,62.84
2024-03-25T09:14:09.906Z,59.89
2024-03-25T09:15:09.840Z,63.40
2024-03-25T09:16:09.892Z,61.04
2024-03-25T09:17:09.985Z,63.23
2024-03-25T09:18:10.025Z,65.12
2024-03-25T09:19:10.119Z,61.72
2024-03-25T09:20:10.185Z,63.39
2024-03-25T09:21:10.218Z,64.79
2024-03-25T09:22:10.285Z,63.20
2024-03-25T09:23:10.418Z,62.75
2024-03-25T09:24:10.426Z,63.93
2024-03-25T09:25:10.518Z,64.70
2024-03-25T09:26:10.607Z,65.21
2024-03-25T09:27:10.627Z,65.70
2024-03-25T09:28:10.678Z,64.86
2024-03-25T09:29:10.754Z,63.55
2024-03-25T09:30:10.826Z,66.24
2024-03-25T09:31:10.897Z,64.84
2024-03-25T09:32:10.968Z,64.12
2024-03-25T09:33:11.012Z,66.06
2024-03-25T09:34:11.163Z,66.20
2024-03-25T09:35:11.149Z,65.55
2024-03-25T09:36:11.195Z,65.37
2024-03-25T09:37:11.303Z,66.93
2024-03-25T09:38:11.352Z,66.97
2024-03-25T09:39:11.393Z,65.36
2024-03-25T09:40:11.465Z,66.37
2024-03-25T09:41:11.550Z,66.24
2024-03-25T09:42:11.570Z,65.14
2024-03-25T09:43:11.645Z,66.37
2024-03-25T09:44:11.738Z,65.90
2024-03-25T09:45:11.750Z,67.92
2024-03-25T09:46:11.791Z,68.78
2024-03-25T09:47:11.936Z,66.79
2024-03-25T09:48:11.950Z,66.37
2024-03-25T09:49:11.937Z,68.23
2024-03-25T09:50:12.072Z,66.00
2024-03-25T09:51:12.123Z,66.35
2024-03-25T09:52:12.161Z,67.79
2024-03-25T09:53:12.135Z,64.70
2024-03-25T09:54:12.186Z,69.19
2024-03-25T09:55:12.259Z,66.63
2024-03-25T09:56:12.271Z,68.27
2024-03-25T09:57:12.294Z,67.97
2024-03-25T09:58:12.347Z,69.83
2024-03-25T09:59:12.398Z,68.33
2024-03-25T10:00:12.489Z,69.28
2024-03-25T10:01:12.552Z,67.70
2024-03-25T10:02:12.629Z,69.37
2024-03-25T10:03:12.586Z,69.73
2024-03-25T10:04:12.592Z,68.92
2024-03-25T10:05:12.654Z,70.16
2024-03-25T10:06:12.679Z,69.50
2024-03-25T10:07:12.705Z,70.94
2024-03-25T10:08:12.744Z,69.92
2024-03-25T10:09:12.862Z,70.88
2024-03-25T10:10:12.821Z,71.88
2024-03-25T10:11:12.867Z,68.98
2024-03-25T10:12:12.923Z,68.95
2024-03-25T10:13:12.963Z,71.19
2024-03-25T10:14:13.056Z,72.79
2024-03-25T10:15:13.112Z,71.26
2024-03-25T10:16:13.076Z,70.52
2024-03-25T10:17:13.174Z,70.95
2024-03-25T10:18:13.125Z,73.09
2024-03-25T10:19:13.145Z,71.70
2024-03-25T10:20:13.201Z,71.16
2024-03-25T10:21:13.250Z,72.38
2024-03-25T10:22:13.219Z,72.76
2024-03-25T10:23:13.241Z,73.86
2024-03-25T10:24:13.268Z,72.84
2024-03-25T10:25:13.289Z,73.56
2024-03-25T10:26:13.333Z,73.09
2024-03-25T10:27:13.395Z,73.33
2024-03-25T10:28:13.402Z,74.83
2024-03-25T10:29:13.405Z,73.05
2024-03-25T10:30:13.360Z,74.87
2024-03-25T10:31:13.382Z,74.15
2024-03-25T10:32:13.382Z,73.18
2024-03-25T10:33:13.390Z,74.24
2024-03-25T10:34:13.421Z,75.23
2024-03-25T10:35:13.443Z,75.04
2024-03-25T10:36:13.428Z,76.20
2024-03-25T10:37:13.543Z,75.86
2024-03-25T10:38:13.544Z,74.79
2024-03-25T10:39:13.460Z,73.64
2024-03-25T10:40:13.471Z,76.34
2024-03-25T10:41:13.483Z,74.73
2024-03-25T10:42:13.471Z,76.31
2024-03-25T10:43:13.492Z,75.51
2024-03-25T10:44:13.521Z,75.08
2024-03-25T10:45:13.496Z,75.07
2024-03-25T10:46:13.517Z,75.83
2024-03-25T10:47:13.541Z,75.88
2024-03-25T10:48:13.544Z,75.36
2024-03-25T10:49:13.594Z,75.40
2024-03-25T10:50:13.675Z,77.69
2024-03-25T10:51:13.622Z,76.73
2024-03-25T10:52:13.716Z,76.84
2024-03-25T10:53:13.750Z,77.17
2024-03-25T10:54:13.810Z,78.32
2024-03-25T10:55:13.842Z,77.05
2024-03-25T10:56:13.893Z,76.64
2024-03-25T10:57:13.965Z,79.45
2024-03-25T10:58:14.006Z,78.03
2024-03-25T10:59:14.164Z,77.33
2024-03-25T11:00:14.119Z,78.34
2024-03-25T11:01:14.191Z,76.45
2024-03-25T11:02:14.248Z,75.50
2024-03-25T11:03:14.305Z,77.37
2024-03-25T11:04:14.418Z,76.66
2024-03-25T11:05:14.535Z,76.65
2024-03-25T11:06:14.581Z,76.78
2024-03-25T11:07:14.581Z,74.76
2024-03-25T11:08:14.714Z,74.75
2024-03-25T11:09:14.709Z,77.94
2024-03-25T11:10:14.773Z,76.16
2024-03-25T11:11:14.840Z,77.43
2024-03-25T11:12:15.502Z,75.88
2024-03-25T11:13:14.961Z,75.67
2024-03-25T11:14:15.086Z,76.28
2024-03-25T11:15:15.098Z,77.64
2024-03-25T11:16:15.148Z,76.72
2024-03-25T11:17:15.241Z,76.01
2024-03-25T11:18:15.302Z,76.81
2024-03-25T11:19:15.386Z,75.41
2024-03-25T11:20:15.440Z,77.51
2024-03-25T11:21:15.497Z,76.14
2024-03-25T11:22:15.534Z,76.20
2024-03-25T11:23:15.627Z,76.17
2024-03-25T11:24:15.659Z,78.23
2024-03-25T11:25:15.718Z,75.21
2024-03-25T11:26:15.817Z,76.36
2024-03-25T11:27:15.827Z,76.11
2024-03-25T11:28:15.891Z,75.94
2024-03-25T11:29:15.947Z,74.76
2024-03-25T11:30:16.031Z,73.10
2024-03-25T11:31:16.079Z,72.10
2024-03-25T11:32:16.185Z,73.27
2024-03-25T11:33:16.184Z,71.24
2024-03-25T11:34:16.268Z,71.46
2024-03-25T11:35:16.301Z,70.09
2024-03-25T11:36:16.344Z,68.75
2024-03-25T11:37:16.412Z,69.53
2024-03-25T11:38:16.473Z,70.75
2024-03-25T11:39:16.496Z,70.77
2024-03-25T11:40:16.569Z,67.81
2024-03-25T11:41:16.630Z,67.83
2024-03-25T11:42:16.649Z,68.53
2024-03-25T11:43:16.687Z,67.30
2024-03-25T11:44:16.763Z,68.08
2024-03-25T11:45:16.798Z,67.77
2024-03-25T11:46:16.836Z,68.05
2024-03-25T11:47:16.908Z,68.96
2024-03-25T11:48:16.931Z,69.40
2024-03-25T11:49:16.999Z,69.70
2024-03-25T11:50:17.079Z,68.25
2024-03-25T11:51:17.093Z,70.61
2024-03-25T11:52:18.458Z,70.57
2024-03-25T11:53:17.189Z,72.48
2024-03-25T11:54:17.200Z,72.31
2024-03-25T11:55:17.267Z,71.57
2024-03-25T11:56:17.315Z,72.94
2024-03-25T11:57:17.380Z,72.63
2024-03-25T11:58:17.344Z,72.79
2024-03-25T11:59:17.400Z,73.36
2024-03-25T12:00:17.418Z,73.75
2024-03-25T12:01:17.435Z,74.83
2024-03-25T12:02:17.487Z,75.08
2024-03-25T12:03:17.496Z,75.67
2024-03-25T12:04:17.545Z,75.47
2024-03-25T12:05:17.630Z,76.01
2024-03-25T12:06:17.627Z,76.56
2024-03-25T12:07:17.633Z,78.47
2024-03-25T12:08:17.676Z,77.85
2024-03-25T12:09:17.694Z,77.89
2024-03-25T12:10:17.720Z,77.45
2024-03-25T12:11:17.755Z,77.80
2024-03-25T12:12:17.790Z,78.65
2024-03-25T12:13:17.819Z,80.36
2024-03-25T12:14:17.839Z,79.59
2024-03-25T12:15:17.900Z,79.22
2024-03-25T12:16:18.738Z,79.14
2024-03-25T12:17:17.939Z,80.74
2024-03-25T12:18:17.965Z,80.32
2024-03-25T12:19:17.993Z,81.14
2024-03-25T12:20:18.053Z,80.98
2024-03-25T12:21:18.079Z,82.16
2024-03-25T12:22:18.099Z,81.64
2024-03-25T12:23:19.652Z,81.38
2024-03-25T12:24:18.150Z,83.19
2024-03-25T12:25:18.206Z,82.76
2024-03-25T12:26:18.272Z,81.92
2024-03-25T12:27:18.289Z,82.78
2024-03-25T12:28:18.325Z,82.04
2024-03-25T12:29:18.387Z,84.05
2024-03-25T12:30:18.420Z,83.39
2024-03-25T12:31:18.459Z,83.02
2024-03-25T12:32:18.506Z,83.81
2024-03-25T12:33:18.571Z,83.71
2024-03-25T12:34:18.630Z,84.78
2024-03-25T12:35:18.664Z,83.79
2024-03-25T12:36:18.721Z,84.28
2024-03-25T12:37:18.725Z,84.94
2024-03-25T12:38:18.804Z,84.76
2024-03-25T12:39:18.816Z,84.04
2024-03-25T12:40:18.878Z,85.15
2024-03-25T12:41:18.929Z,85.24
2024-03-25T12:42:18.931Z,84.63
2024-03-25T12:43:22.105Z,86.27
2024-03-25T12:44:19.002Z,86.83
2024-03-25T12:45:18.997Z,86.25
2024-03-25T12:46:18.979Z,86.86
2024-03-25T12:47:19.023Z,85.78
2024-03-25T12:48:18.982Z,86.35
2024-03-25T12:49:19.008Z,87.01
2024-03-25T12:50:18.982Z,86.10
2024-03-25T12:51:18.997Z,87.29
2024-03-25T12:52:19.009Z,87.53
2024-03-25T12:53:19.019Z,87.42
2024-03-25T12:54:18.992Z,86.57